Página principal
METAR-TAF:

METAR-TAF

Aeroportos :

Funchal, Madeira, Portugal

Aeroporto da Madeira

latitude: 32-41-52N, longitude: 016-46-28W, altura: 59 m

Observação actual do tempo

O boletim foi feito há 35 minutos, às 08:00 UTC
Vento 14 kt de nor-nordeste, variando entre norte e nordeste
Temperatura 23°C
Humidade 53%
Pressão 1016 hPa
Visibilidade 10 km ou mais
Poucas nuvensa uma altura de 1500 ft

METAR: LPMA 260800Z 02014KT 350V050 9999 FEW015 23/13 Q1016

Hora: 09:35 (08:35 UTC)


TAF: em falta

Observações e previsões do tempo de mais de 4000 aeroportos (mensagens METAR e TAF).

As estações disponíveis são os pontos amarelos e vermelhos sobre o mapa.

Mova o rato sobre o mapa para ver o nome da estação.

Depois clique no ponto para visualizar as observações e previsões meteorológicas.

Para alterar o mapa : clique nos botões verdes com uma cruz preta para aumentar o zoom; no botão verde com uma pitada de zoom; ou nas setas verdes para mapas adjacentes.


METAR-TAF: